Time;durP1;ratioP1;P1;durP2;ratioP2;P2;SDS_P1;SDS_P2;PMS_P1;PMS_P2;Temp;Humidity;BMP_temperature;BMP_pressure;BME280_temperature;BME280_humidity;BME280_pressure;Samples;Min_cycle;Max_cycle;Signal;HPM_P1;HPM_P2
2022/08/27 00:01:03;;;;;;;;;;;;;;;14.24;100.00;101691.31;6512159;22;20244;-81
2022/08/27 00:03:34;;;;;;;;;;;;;;;14.14;100.00;101684.09;6538892;22;20269;-82
2022/08/27 00:06:06;;;;;;;;;;;;;;;14.03;100.00;101686.97;6538453;22;19907;-81
2022/08/27 00:08:37;;;;;;;;;;;;;;;13.95;100.00;101682.31;6538398;22;19911;-82
2022/08/27 00:11:09;;;;;;;;;;;;;;;13.91;100.00;101688.97;6539445;22;20009;-81
2022/08/27 00:13:41;;;;;;;;;;;;;;;13.88;100.00;101694.59;6539418;22;20226;-81
2022/08/27 00:16:13;;;;;;;;;;;;;;;13.83;100.00;101690.66;6538452;22;19987;-80
2022/08/27 00:18:45;;;;;;;;;;;;;;;13.75;100.00;101688.72;6538799;22;20719;-83
2022/08/27 00:21:17;;;;;;;;;;;;;;;13.71;100.00;101684.59;6513321;22;19903;-81
2022/08/27 00:23:49;;;;;;;;;;;;;;;13.68;100.00;101692.94;6539592;22;19938;-83
2022/08/27 00:26:20;;;;;;;;;;;;;;;13.63;100.00;101679.13;6539055;22;19908;-81
2022/08/27 00:28:51;;;;;;;;;;;;;;;13.56;100.00;101685.03;6540203;22;19911;-81
2022/08/27 00:31:23;;;;;;;;;;;;;;;13.52;100.00;101677.44;6540301;22;19961;-83
2022/08/27 00:33:54;;;;;;;;;;;;;;;13.45;100.00;101674.47;6540197;22;20318;-83
2022/08/27 00:36:26;;;;;;;;;;;;;;;13.40;100.00;101680.25;6538999;22;20267;-81
2022/08/27 00:38:57;;;;;;;;;;;;;;;13.35;100.00;101679.81;6539981;22;20049;-81
2022/08/27 00:41:28;;;;;;;;;;;;;;;13.25;100.00;101676.25;6540237;22;19908;-81
2022/08/27 00:44:00;;;;;;;;;;;;;;;13.18;100.00;101684.03;6539398;22;19907;-81
2022/08/27 00:46:44;;;;;;;;;;;;;;;13.11;100.00;101679.34;6539692;22;20336;-81
2022/08/27 00:49:41;;;;;;;;;;;;;;;13.02;100.00;101675.66;6539190;22;20322;-83
2022/08/27 00:52:12;;;;;;;;;;;;;;;12.93;100.00;101671.13;6468863;22;19922;-80
2022/08/27 00:54:44;;;;;;;;;;;;;;;12.90;100.00;101674.91;6539273;22;19903;-81
2022/08/27 00:57:16;;;;;;;;;;;;;;;12.85;100.00;101682.53;6539509;22;19919;-81
2022/08/27 00:59:47;;;;;;;;;;;;;;;12.81;100.00;101676.59;6539106;22;19912;-81
2022/08/27 01:02:18;;;;;;;;;;;;;;;12.78;100.00;101679.56;6540797;22;19910;-80
2022/08/27 01:04:54;;;;;;;;;;;;;;;12.74;100.00;101675.44;6540019;22;19911;-81
2022/08/27 01:07:27;;;;;;;;;;;;;;;12.68;100.00;101676.84;6540085;22;19962;-81
2022/08/27 01:10:00;;;;;;;;;;;;;;;12.65;100.00;101668.25;6513610;22;19910;-81
2022/08/27 01:12:32;;;;;;;;;;;;;;;12.63;100.00;101670.22;6539909;22;19908;-81
2022/08/27 01:15:06;;;;;;;;;;;;;;;12.59;100.00;101671.47;6512805;22;19935;-81
2022/08/27 01:17:38;;;;;;;;;;;;;;;12.53;100.00;101664.81;6539554;22;19978;-81
2022/08/27 01:20:12;;;;;;;;;;;;;;;12.51;100.00;101665.94;6538871;22;19904;-81
2022/08/27 01:23:02;;;;;;;;;;;;;;;12.44;100.00;101674.50;6539924;22;20342;-81
2022/08/27 01:25:34;;;;;;;;;;;;;;;12.41;100.00;101665.88;6539991;22;19903;-81
2022/08/27 01:28:05;;;;;;;;;;;;;;;12.34;100.00;101664.72;6512562;22;20262;-81
2022/08/27 01:30:37;;;;;;;;;;;;;;;12.29;100.00;101667.81;6540331;22;19912;-81
2022/08/27 01:33:09;;;;;;;;;;;;;;;12.23;100.00;101663.84;6538846;22;19990;-81
2022/08/27 01:35:41;;;;;;;;;;;;;;;12.23;100.00;101663.00;6511706;22;20187;-81
2022/08/27 01:38:14;;;;;;;;;;;;;;;12.18;100.00;101663.38;6538467;22;19927;-81
2022/08/27 01:40:45;;;;;;;;;;;;;;;12.14;100.00;101659.28;6539275;22;19910;-81
2022/08/27 01:43:17;;;;;;;;;;;;;;;12.07;100.00;101674.19;6539015;22;19912;-81
2022/08/27 01:45:49;;;;;;;;;;;;;;;12.00;100.00;101662.31;6539568;22;19908;-81
2022/08/27 01:48:21;;;;;;;;;;;;;;;11.93;100.00;101663.81;6539828;22;19911;-81
2022/08/27 01:50:52;;;;;;;;;;;;;;;11.91;100.00;101667.47;6513058;22;19907;-81
2022/08/27 01:53:25;;;;;;;;;;;;;;;11.85;100.00;101662.63;6539266;22;19976;-81
2022/08/27 01:55:56;;;;;;;;;;;;;;;11.82;100.00;101659.38;6539256;22;19991;-81
2022/08/27 01:58:29;;;;;;;;;;;;;;;11.79;100.00;101667.63;6539908;22;20302;-81
2022/08/27 02:01:02;;;;;;;;;;;;;;;11.76;100.00;101654.53;6512087;22;20284;-81
2022/08/27 02:03:35;;;;;;;;;;;;;;;11.68;100.00;101656.03;6538160;22;19957;-81
2022/08/27 02:06:08;;;;;;;;;;;;;;;11.59;100.00;101659.47;6540426;22;19962;-81
2022/08/27 02:08:39;;;;;;;;;;;;;;;11.55;100.00;101660.69;6539997;22;19908;-81
2022/08/27 02:11:10;;;;;;;;;;;;;;;11.48;100.00;101654.19;6512512;22;19946;-81
2022/08/27 02:13:42;;;;;;;;;;;;;;;11.43;100.00;101646.56;6540409;22;19907;-82
2022/08/27 02:16:13;;;;;;;;;;;;;;;11.40;100.00;101645.97;6540888;22;20060;-81
2022/08/27 02:18:44;;;;;;;;;;;;;;;11.37;100.00;101647.06;6540229;22;20379;-81
2022/08/27 02:21:16;;;;;;;;;;;;;;;11.38;100.00;101646.09;6540626;22;19919;-81
2022/08/27 02:23:47;;;;;;;;;;;;;;;11.37;100.00;101647.06;6540063;22;19907;-81
2022/08/27 02:26:19;;;;;;;;;;;;;;;11.33;100.00;101641.13;6540446;22;20256;-81
2022/08/27 02:28:51;;;;;;;;;;;;;;;11.33;100.00;101650.97;6512857;22;20365;-81
2022/08/27 02:31:22;;;;;;;;;;;;;;;11.34;100.00;101650.84;6540515;22;19927;-81
2022/08/27 02:33:54;;;;;;;;;;;;;;;11.31;100.00;101637.75;6539149;22;20262;-81
2022/08/27 02:36:25;;;;;;;;;;;;;;;11.31;100.00;101640.41;6540344;22;19985;-81
2022/08/27 02:38:56;;;;;;;;;;;;;;;11.27;100.00;101639.00;6540094;22;19998;-81
2022/08/27 02:41:27;;;;;;;;;;;;;;;11.21;100.00;101636.81;6539450;22;19923;-81
2022/08/27 02:43:58;;;;;;;;;;;;;;;11.20;100.00;101639.59;6539729;22;20254;-81
2022/08/27 02:46:30;;;;;;;;;;;;;;;11.23;100.00;101637.53;6539677;22;19903;-81
2022/08/27 02:49:01;;;;;;;;;;;;;;;11.26;100.00;101645.28;6539318;22;20455;-81
2022/08/27 02:51:32;;;;;;;;;;;;;;;11.28;100.00;101639.81;6512467;22;19911;-81
2022/08/27 02:54:03;;;;;;;;;;;;;;;11.32;100.00;101638.59;6539323;22;19915;-81
2022/08/27 02:56:35;;;;;;;;;;;;;;;11.36;100.00;101634.69;6539325;22;19993;-81
2022/08/27 02:59:06;;;;;;;;;;;;;;;11.40;100.00;101638.81;6539031;22;19923;-81
2022/08/27 03:01:38;;;;;;;;;;;;;;;11.43;100.00;101643.03;6539174;22;19907;-81
2022/08/27 03:04:10;;;;;;;;;;;;;;;11.49;100.00;101643.38;6511747;22;19907;-81
2022/08/27 03:06:41;;;;;;;;;;;;;;;11.57;100.00;101647.22;6539425;22;19903;-81
2022/08/27 03:09:12;;;;;;;;;;;;;;;11.64;100.00;101646.59;6538955;22;20269;-81
2022/08/27 03:11:43;;;;;;;;;;;;;;;11.71;100.00;101646.88;6540041;22;19911;-81
2022/08/27 03:14:14;;;;;;;;;;;;;;;11.78;100.00;101641.88;6512619;22;19907;-81
2022/08/27 03:16:46;;;;;;;;;;;;;;;11.81;100.00;101641.63;6539145;22;20348;-81
2022/08/27 03:19:17;;;;;;;;;;;;;;;11.84;100.00;101647.53;6544089;22;19899;-81
2022/08/27 03:21:48;;;;;;;;;;;;;;;11.87;100.00;101649.13;6566317;22;19914;-81
2022/08/27 03:24:19;;;;;;;;;;;;;;;11.89;100.00;101645.34;6565148;22;19919;-81
2022/08/27 03:26:51;;;;;;;;;;;;;;;11.91;100.00;101645.22;6567580;22;19925;-81
2022/08/27 03:29:22;;;;;;;;;;;;;;;11.93;100.00;101650.44;6565122;22;20229;-81
2022/08/27 03:31:53;;;;;;;;;;;;;;;11.94;100.00;101655.69;6551556;22;19903;-81
2022/08/27 03:34:25;;;;;;;;;;;;;;;11.93;100.00;101647.78;6542616;22;19914;-81
2022/08/27 03:36:56;;;;;;;;;;;;;;;11.94;100.00;101647.66;6539072;22;19938;-81
2022/08/27 03:39:27;;;;;;;;;;;;;;;11.94;100.00;101646.78;6511862;22;19907;-81
2022/08/27 03:41:58;;;;;;;;;;;;;;;11.91;100.00;101645.22;6539293;22;20014;-81
2022/08/27 03:44:30;;;;;;;;;;;;;;;11.85;100.00;101648.38;6538801;22;19903;-81
2022/08/27 03:47:01;;;;;;;;;;;;;;;11.82;100.00;101654.84;6538857;22;19953;-82
2022/08/27 03:49:32;;;;;;;;;;;;;;;11.82;100.00;101651.34;6538918;22;19937;-82
2022/08/27 03:52:04;;;;;;;;;;;;;;;11.82;100.00;101657.53;6538808;22;19915;-82
2022/08/27 03:54:38;;;;;;;;;;;;;;;11.82;100.00;101660.19;6538674;22;20413;-82
2022/08/27 03:57:10;;;;;;;;;;;;;;;11.85;100.00;101654.59;6539026;22;20285;-82
2022/08/27 03:59:41;;;;;;;;;;;;;;;11.91;100.00;101653.25;6511430;22;20254;-82
2022/08/27 04:02:12;;;;;;;;;;;;;;;11.94;100.00;101653.00;6539207;22;19974;-81
2022/08/27 04:04:43;;;;;;;;;;;;;;;11.92;100.00;101649.59;6539082;22;19998;-82
2022/08/27 04:07:15;;;;;;;;;;;;;;;11.94;100.00;101644.09;6538606;22;19918;-81
2022/08/27 04:09:46;;;;;;;;;;;;;;;11.94;100.00;101655.69;6538310;22;20334;-83
2022/08/27 04:12:17;;;;;;;;;;;;;;;11.96;100.00;101650.19;6539123;22;19903;-81
2022/08/27 04:14:48;;;;;;;;;;;;;;;11.95;100.00;101651.16;6539131;22;19904;-82
2022/08/27 04:17:20;;;;;;;;;;;;;;;11.86;100.00;101648.25;6538736;22;19904;-81
2022/08/27 04:19:51;;;;;;;;;;;;;;;11.86;100.00;101652.78;6538472;22;19907;-82
2022/08/27 04:22:23;;;;;;;;;;;;;;;11.84;100.00;101639.53;6538989;22;19999;-81
2022/08/27 04:24:54;;;;;;;;;;;;;;;11.79;100.00;101643.59;6538599;22;19949;-81
2022/08/27 04:27:26;;;;;;;;;;;;;;;11.74;100.00;101641.28;6538525;22;19939;-81
2022/08/27 04:29:58;;;;;;;;;;;;;;;11.69;100.00;101641.69;6538076;22;19915;-81
2022/08/27 04:32:29;;;;;;;;;;;;;;;11.65;100.00;101644.75;6539345;22;20285;-81
2022/08/27 04:35:01;;;;;;;;;;;;;;;11.60;100.00;101644.28;6511822;22;19907;-81
2022/08/27 04:37:32;;;;;;;;;;;;;;;11.59;100.00;101643.44;6538734;22;19914;-81
2022/08/27 04:40:04;;;;;;;;;;;;;;;11.60;100.00;101657.66;6511121;22;19908;-81
2022/08/27 04:42:35;;;;;;;;;;;;;;;11.57;100.00;101653.44;6538259;22;20277;-81
2022/08/27 04:45:07;;;;;;;;;;;;;;;11.57;100.00;101660.56;6538364;22;20276;-81
2022/08/27 04:47:38;;;;;;;;;;;;;;;11.57;100.00;101655.22;6538618;22;20255;-81
2022/08/27 04:50:09;;;;;;;;;;;;;;;11.61;100.00;101660.19;6538202;22;19916;-81
2022/08/27 04:52:40;;;;;;;;;;;;;;;11.69;100.00;101662.22;6511177;22;19916;-81
2022/08/27 04:55:11;;;;;;;;;;;;;;;11.77;100.00;101658.91;6538523;22;19903;-81
2022/08/27 04:57:43;;;;;;;;;;;;;;;11.81;100.00;101654.97;6538623;22;20334;-81
2022/08/27 05:00:14;;;;;;;;;;;;;;;11.94;100.00;101660.16;6537977;22;19990;-81
2022/08/27 05:02:45;;;;;;;;;;;;;;;12.03;100.00;101662.91;6511859;22;20310;-81
2022/08/27 05:05:16;;;;;;;;;;;;;;;12.12;100.00;101668.44;6538350;22;19919;-81
2022/08/27 05:07:48;;;;;;;;;;;;;;;12.15;100.00;101665.47;6537936;22;20245;-81
2022/08/27 05:10:19;;;;;;;;;;;;;;;12.15;100.00;101665.47;6550550;22;19907;-81
2022/08/27 05:12:50;;;;;;;;;;;;;;;12.21;100.00;101660.44;6538910;22;20057;-81
2022/08/27 05:15:21;;;;;;;;;;;;;;;12.30;100.00;101664.16;6537749;22;19914;-81
2022/08/27 05:17:53;;;;;;;;;;;;;;;12.43;100.00;101659.44;6539244;22;19994;-82
2022/08/27 05:20:25;;;;;;;;;;;;;;;12.60;100.00;101673.16;6537875;22;19910;-81
2022/08/27 05:22:56;;;;;;;;;;;;;;;12.75;100.00;101668.28;6537126;22;19965;-82
2022/08/27 05:25:27;;;;;;;;;;;;;;;12.91;100.00;101667.75;6538315;22;19908;-81
2022/08/27 05:27:59;;;;;;;;;;;;;;;13.11;100.00;101669.47;6539193;22;19908;-82
2022/08/27 05:30:33;;;;;;;;;;;;;;;13.31;100.00;101672.19;6539493;22;20206;-81
2022/08/27 05:33:06;;;;;;;;;;;;;;;13.47;100.00;101675.19;6538934;22;19915;-81
2022/08/27 05:35:41;;;;;;;;;;;;;;;13.68;100.00;101674.19;6539717;22;19912;-82
2022/08/27 05:38:12;;;;;;;;;;;;;;;13.82;100.00;101670.22;6538995;22;20010;-81
2022/08/27 05:40:46;;;;;;;;;;;;;;;13.98;100.00;101678.50;6514005;22;19903;-82
2022/08/27 05:43:17;;;;;;;;;;;;;;;14.15;100.00;101680.44;6540366;22;19919;-82
2022/08/27 05:45:49;;;;;;;;;;;;;;;14.26;100.00;101682.09;6539849;22;19904;-82
2022/08/27 05:48:20;;;;;;;;;;;;;;;14.32;100.00;101681.53;6511474;22;19915;-82
2022/08/27 05:50:51;;;;;;;;;;;;;;;14.36;100.00;101677.56;6512839;22;19908;-82
2022/08/27 05:53:22;;;;;;;;;;;;;;;14.45;100.00;101677.66;6538632;22;19911;-82
2022/08/27 05:55:53;;;;;;;;;;;;;;;14.49;100.00;101676.38;6539412;22;20385;-82
2022/08/27 06:01:20;;;;;;;;;;;;;;;14.66;100.00;101680.16;6539177;22;19903;-82
2022/08/27 06:03:53;;;;;;;;;;;;;;;14.77;100.00;101677.25;6512070;22;20464;-82
2022/08/27 06:06:24;;;;;;;;;;;;;;;14.96;100.00;101681.69;6539544;22;19911;-82
2022/08/27 06:08:56;;;;;;;;;;;;;;;15.08;100.00;101688.53;6538173;22;19919;-82
2022/08/27 06:11:27;;;;;;;;;;;;;;;15.19;100.00;101689.31;6539203;22;19907;-82
2022/08/27 06:13:58;;;;;;;;;;;;;;;15.27;100.00;101695.63;6538911;22;19904;-82
2022/08/27 06:16:30;;;;;;;;;;;;;;;15.31;100.00;101697.00;6539894;22;20289;-82
2022/08/27 06:19:01;;;;;;;;;;;;;;;15.37;100.00;101695.53;6512138;22;19957;-82
2022/08/27 06:21:33;;;;;;;;;;;;;;;15.43;100.00;101694.09;6512461;22;19910;-82
2022/08/27 06:24:04;;;;;;;;;;;;;;;15.50;100.00;101692.47;6538079;22;19904;-82
2022/08/27 06:26:35;;;;;;;;;;;;;;;15.50;100.00;101696.00;6512189;22;20066;-82
2022/08/27 06:29:07;;;;;;;;;;;;;;;15.55;100.00;101700.06;6538258;22;19961;-82
2022/08/27 06:31:39;;;;;;;;;;;;;;;15.58;100.00;101697.91;6538564;22;19903;-82
2022/08/27 06:34:10;;;;;;;;;;;;;;;15.64;100.00;101699.16;6512505;22;19903;-82
2022/08/27 06:36:41;;;;;;;;;;;;;;;15.69;100.00;101697.69;6511370;22;19907;-82
2022/08/27 06:39:14;;;;;;;;;;;;;;;15.81;100.00;101690.25;6538314;22;19911;-82
2022/08/27 06:41:45;;;;;;;;;;;;;;;15.95;100.00;101694.19;6539551;22;19927;-82
2022/08/27 06:44:16;;;;;;;;;;;;;;;16.12;100.00;101692.47;6511836;22;19912;-82
2022/08/27 06:46:48;;;;;;;;;;;;;;;16.29;100.00;101700.66;6538185;22;19903;-82
2022/08/27 06:49:19;;;;;;;;;;;;;;;16.41;100.00;101696.69;6539625;22;19977;-82
2022/08/27 06:51:50;;;;;;;;;;;;;;;16.52;100.00;101693.72;6540066;22;19926;-82
2022/08/27 06:54:21;;;;;;;;;;;;;;;16.56;100.00;101689.69;6539983;22;20002;-82
2022/08/27 06:56:52;;;;;;;;;;;;;;;16.67;100.00;101690.41;6513173;22;19903;-82
2022/08/27 06:59:23;;;;;;;;;;;;;;;16.75;100.00;101693.97;6540613;22;19954;-82
2022/08/27 07:01:55;;;;;;;;;;;;;;;16.84;100.00;101694.06;6539879;22;19911;-82
2022/08/27 07:04:26;;;;;;;;;;;;;;;16.93;100.00;101696.59;6539893;22;20317;-82
2022/08/27 07:06:57;;;;;;;;;;;;;;;17.08;100.00;101696.81;6539155;22;19910;-82
2022/08/27 07:09:31;;;;;;;;;;;;;;;17.22;100.00;101699.88;6540364;22;20262;-82
2022/08/27 07:12:02;;;;;;;;;;;;;;;17.38;100.00;101699.91;6539498;22;19918;-82
2022/08/27 07:14:34;;;;;;;;;;;;;;;17.55;100.00;101707.00;6539638;22;20317;-82
2022/08/27 07:17:05;;;;;;;;;;;;;;;17.74;100.00;101705.84;6539897;22;19925;-82
2022/08/27 07:19:37;;;;;;;;;;;;;;;17.92;100.00;101703.00;6540561;22;20172;-82
2022/08/27 07:22:09;;;;;;;;;;;;;;;18.15;100.00;101702.28;6513185;22;19942;-82
2022/08/27 07:24:40;;;;;;;;;;;;;;;18.39;100.00;101697.84;6540676;22;19907;-82
2022/08/27 07:27:12;;;;;;;;;;;;;;;18.57;100.00;101700.34;6540699;22;19914;-82
2022/08/27 07:29:43;;;;;;;;;;;;;;;18.72;100.00;101706.66;6512912;22;20320;-82
2022/08/27 07:32:14;;;;;;;;;;;;;;;18.87;100.00;101702.25;6513045;22;20421;-82
2022/08/27 07:34:45;;;;;;;;;;;;;;;19.03;100.00;101701.31;6540464;22;19903;-82
2022/08/27 07:37:16;;;;;;;;;;;;;;;19.17;100.00;101702.41;6540790;22;19914;-82
2022/08/27 07:39:48;;;;;;;;;;;;;;;19.36;100.00;101701.13;6540377;22;20214;-82
2022/08/27 07:45:09;;;;;;;;;;;;;;;19.59;100.00;101702.97;6539663;22;20326;-82
2022/08/27 07:47:41;;;;;;;;;;;;;;;19.60;100.00;101696.53;6539923;22;19998;-82
2022/08/27 07:50:12;;;;;;;;;;;;;;;19.52;100.00;101702.03;6540574;22;19989;-82
2022/08/27 07:52:44;;;;;;;;;;;;;;;19.46;100.00;101703.59;6539496;22;20350;-82
2022/08/27 07:55:15;;;;;;;;;;;;;;;19.73;100.00;101701.34;6513318;22;20369;-82
2022/08/27 07:57:47;;;;;;;;;;;;;;;20.20;100.00;101703.81;6540744;22;20409;-82
2022/08/27 08:00:18;;;;;;;;;;;;;;;20.80;100.00;101708.41;6542373;22;19911;-82
2022/08/27 08:02:49;;;;;;;;;;;;;;;21.27;100.00;101709.81;6540398;22;19908;-82
2022/08/27 08:05:21;;;;;;;;;;;;;;;21.74;100.00;101710.25;6541742;22;19927;-83
2022/08/27 08:07:52;;;;;;;;;;;;;;;22.25;100.00;101701.91;6540707;22;19922;-83
2022/08/27 08:10:23;;;;;;;;;;;;;;;22.69;100.00;101703.44;6539020;22;19910;-82
2022/08/27 08:12:54;;;;;;;;;;;;;;;23.20;100.00;101702.19;6539175;22;20348;-83
2022/08/27 08:15:25;;;;;;;;;;;;;;;23.81;100.00;101695.78;6540747;22;19920;-83
2022/08/27 08:17:57;;;;;;;;;;;;;;;24.55;100.00;101710.16;6512739;22;20319;-83
2022/08/27 08:20:29;;;;;;;;;;;;;;;25.48;100.00;101706.97;6513785;22;19907;-83
2022/08/27 08:23:01;;;;;;;;;;;;;;;26.58;100.00;101705.56;6539997;22;19921;-83
2022/08/27 08:25:32;;;;;;;;;;;;;;;27.62;100.00;101706.50;6540165;22;19915;-83
2022/08/27 08:28:04;;;;;;;;;;;;;;;28.35;100.00;101707.97;6540983;22;19911;-83
2022/08/27 08:30:35;;;;;;;;;;;;;;;29.02;100.00;101709.38;6541025;22;20336;-83
2022/08/27 08:33:07;;;;;;;;;;;;;;;29.53;100.00;101710.31;6540755;22;20223;-84
2022/08/27 08:35:38;;;;;;;;;;;;;;;30.15;100.00;101717.66;6541655;22;19915;-84
2022/08/27 08:38:10;;;;;;;;;;;;;;;30.87;100.00;101721.38;6541454;22;20302;-84
2022/08/27 08:40:42;;;;;;;;;;;;;;;31.21;83.24;101718.44;6541358;22;19908;-84
2022/08/27 08:43:25;;;;;;;;;;;;;;;31.42;84.99;101713.97;6541708;22;20217;-83
2022/08/27 08:45:59;;;;;;;;;;;;;;;31.75;93.23;101705.69;6540337;22;19914;-83
2022/08/27 08:48:30;;;;;;;;;;;;;;;32.20;83.15;101710.72;6539745;22;19927;-84
2022/08/27 08:51:10;;;;;;;;;;;;;;;32.74;76.09;101706.84;6538507;22;19908;-83
2022/08/27 08:53:55;;;;;;;;;;;;;;;33.48;70.32;101709.50;6553215;22;19943;-83
2022/08/27 08:56:44;;;;;;;;;;;;;;;34.00;59.19;101707.56;6570376;22;20527;-83
2022/08/27 08:59:18;;;;;;;;;;;;;;;34.70;61.84;101712.31;6570337;22;19896;-83
2022/08/27 09:01:50;;;;;;;;;;;;;;;35.00;55.29;101708.56;6568559;22;19903;-83
2022/08/27 09:04:22;;;;;;;;;;;;;;;34.63;68.78;101705.13;6556451;22;19907;-83
2022/08/27 09:07:03;;;;;;;;;;;;;;;35.28;54.39;101706.19;6547648;22;19919;-83
2022/08/27 09:09:37;;;;;;;;;;;;;;;36.22;54.98;101707.84;6546732;22;20006;-83
2022/08/27 09:12:24;;;;;;;;;;;;;;;35.77;46.52;101710.78;6546293;22;19918;-83
2022/08/27 09:15:08;;;;;;;;;;;;;;;33.16;49.35;101705.06;6513068;22;19904;-83
2022/08/27 09:17:40;;;;;;;;;;;;;;;31.57;55.36;101718.78;6512436;22;19904;-83
2022/08/27 09:20:13;;;;;;;;;;;;;;;30.99;68.58;101714.91;6537404;22;19930;-83
2022/08/27 09:22:56;;;;;;;;;;;;;;;30.16;74.33;101724.81;6538375;22;19910;-83
2022/08/27 09:25:30;;;;;;;;;;;;;;;29.17;74.60;101714.34;6538352;22;19911;-83
2022/08/27 09:29:14;;;;;;;;;;;;;;;28.92;82.70;101709.16;6513100;22;20413;-82
2022/08/27 09:31:02;;;;;;;;;;;;;;;29.14;86.19;101709.31;6538953;22;20274;-83
2022/08/27 09:33:36;;;;;;;;;;;;;;;29.86;73.79;101705.94;6539673;22;19954;-83
2022/08/27 09:36:09;;;;;;;;;;;;;;;30.49;77.36;101711.28;6538424;22;20337;-83
2022/08/27 09:38:49;;;;;;;;;;;;;;;30.15;78.45;101711.31;6539072;22;19914;-82
2022/08/27 09:41:22;;;;;;;;;;;;;;;29.58;79.40;101702.16;6538767;22;20234;-82
2022/08/27 09:43:58;;;;;;;;;;;;;;;29.06;83.60;101710.53;6538710;22;19946;-82
2022/08/27 09:46:30;;;;;;;;;;;;;;;29.82;70.05;101712.19;6539360;22;19904;-82
2022/08/27 09:49:12;;;;;;;;;;;;;;;31.69;59.92;101717.81;6511762;22;19908;-83
2022/08/27 09:51:45;;;;;;;;;;;;;;;33.45;58.74;101707.28;6511171;22;19915;-83
2022/08/27 09:54:42;;;;;;;;;;;;;;;34.58;57.13;101710.69;6538839;22;19907;-82
2022/08/27 09:57:25;;;;;;;;;;;;;;;35.95;46.32;101718.38;6530506;22;19986;-83
2022/08/27 09:59:56;;;;;;;;;;;;;;;37.30;37.44;101718.34;6537880;22;19911;-83
2022/08/27 10:02:27;;;;;;;;;;;;;;;37.57;43.49;101717.63;6538692;22;19985;-83
2022/08/27 10:05:01;;;;;;;;;;;;;;;37.96;41.64;101724.75;6537050;22;19915;-83
2022/08/27 10:07:33;;;;;;;;;;;;;;;37.21;42.36;101721.00;6509884;22;20334;-83
2022/08/27 10:10:07;;;;;;;;;;;;;;;35.45;38.89;101716.88;6537566;22;19950;-83
2022/08/27 10:12:49;;;;;;;;;;;;;;;35.45;39.10;101722.41;6539019;22;19977;-83
2022/08/27 10:15:23;;;;;;;;;;;;;;;34.74;42.99;101711.50;6513302;22;20282;-83
2022/08/27 10:18:01;;;;;;;;;;;;;;;33.62;46.74;101705.06;6540933;22;19973;-82
2022/08/27 10:20:50;;;;;;;;;;;;;;;33.31;45.91;101698.69;6538844;22;20388;-83
2022/08/27 10:23:27;;;;;;;;;;;;;;;32.12;56.97;101702.13;6539000;22;19904;-82
2022/08/27 10:26:10;;;;;;;;;;;;;;;31.35;58.85;101695.97;6541089;22;19904;-82
2022/08/27 10:28:53;;;;;;;;;;;;;;;31.83;66.56;101700.53;6539913;22;19914;-83
2022/08/27 10:31:24;;;;;;;;;;;;;;;33.04;53.19;101693.41;6536276;22;19911;-82
2022/08/27 10:33:58;;;;;;;;;;;;;;;32.53;54.41;101689.34;6539322;22;20326;-82
2022/08/27 10:36:37;;;;;;;;;;;;;;;31.47;53.05;101694.72;6538246;22;19903;-82
2022/08/27 10:39:27;;;;;;;;;;;;;;;30.21;64.13;101690.19;6538768;22;19946;-82
2022/08/27 10:42:17;;;;;;;;;;;;;;;28.96;69.38;101693.84;6538064;22;19975;-83
2022/08/27 10:45:07;;;;;;;;;;;;;;;28.09;96.03;101690.94;6538865;22;19908;-83
2022/08/27 10:47:50;;;;;;;;;;;;;;;27.51;97.16;101688.97;6538924;22;20352;-82
2022/08/27 10:50:32;;;;;;;;;;;;;;;27.08;95.34;101690.81;6537564;22;19903;-82
2022/08/27 10:53:06;;;;;;;;;;;;;;;26.74;97.29;101692.34;6511809;22;19920;-83
2022/08/27 10:55:39;;;;;;;;;;;;;;;26.23;100.00;101686.19;6540170;22;19912;-82
2022/08/27 10:58:17;;;;;;;;;;;;;;;25.94;100.00;101685.00;6507867;22;20295;-83
2022/08/27 11:00:58;;;;;;;;;;;;;;;25.75;100.00;101686.81;6510193;22;19904;-82
2022/08/27 11:03:33;;;;;;;;;;;;;;;25.60;100.00;101687.16;6510980;22;20007;-82
2022/08/27 11:06:13;;;;;;;;;;;;;;;25.55;100.00;101692.44;6538158;22;19985;-83
2022/08/27 11:08:50;;;;;;;;;;;;;;;25.66;100.00;101689.81;6511101;22;19986;-83
2022/08/27 11:11:25;;;;;;;;;;;;;;;25.83;100.00;101687.38;6509620;22;19908;-83
2022/08/27 11:13:58;;;;;;;;;;;;;;;25.92;100.00;101687.91;6536723;22;19911;-82
2022/08/27 11:16:36;;;;;;;;;;;;;;;25.97;100.00;101688.13;6514553;22;20433;-83
2022/08/27 11:19:10;;;;;;;;;;;;;;;25.92;100.00;101692.56;6511299;22;20193;-82
2022/08/27 11:21:46;;;;;;;;;;;;;;;25.78;100.00;101684.47;6536550;22;19982;-82
2022/08/27 11:24:25;;;;;;;;;;;;;;;25.41;100.00;101683.50;6507083;22;19911;-82
2022/08/27 11:27:00;;;;;;;;;;;;;;;25.75;100.00;101678.63;6507396;22;19919;-82
2022/08/27 11:29:44;;;;;;;;;;;;;;;26.14;100.00;101682.06;6535622;22;19912;-83
2022/08/27 11:32:36;;;;;;;;;;;;;;;26.55;100.00;101684.13;6537640;22;19914;-82
2022/08/27 11:35:15;;;;;;;;;;;;;;;26.91;98.96;101679.72;6536825;22;19938;-83
2022/08/27 11:37:49;;;;;;;;;;;;;;;27.30;100.00;101672.00;6535689;22;19932;-83
2022/08/27 11:40:23;;;;;;;;;;;;;;;28.20;100.00;101669.22;6537833;22;20329;-84
2022/08/27 11:43:04;;;;;;;;;;;;;;;30.19;82.31;101678.63;6538456;22;19910;-83
2022/08/27 11:45:39;;;;;;;;;;;;;;;31.15;87.01;101677.31;6510964;22;19911;-83
2022/08/27 11:48:20;;;;;;;;;;;;;;;31.99;55.24;101673.03;6506654;22;19911;-83
2022/08/27 11:51:00;;;;;;;;;;;;;;;30.87;73.53;101680.06;6508713;22;19909;-83
2022/08/27 11:53:33;;;;;;;;;;;;;;;29.29;83.38;101667.59;6501166;22;19916;-83
2022/08/27 11:56:18;;;;;;;;;;;;;;;28.31;77.35;101673.03;6505344;22;19908;-83
2022/08/27 11:58:50;;;;;;;;;;;;;;;27.52;87.89;101674.19;6504629;22;19966;-83
2022/08/27 12:01:30;;;;;;;;;;;;;;;27.06;94.01;101676.53;6504225;22;20377;-83
2022/08/27 12:04:20;;;;;;;;;;;;;;;26.81;93.65;101675.84;6502988;22;19927;-83
2022/08/27 12:07:11;;;;;;;;;;;;;;;26.53;97.32;101672.56;6504599;22;19911;-83
2022/08/27 12:10:05;;;;;;;;;;;;;;;26.29;98.42;101670.75;6477943;22;19908;-83
2022/08/27 12:12:55;;;;;;;;;;;;;;;26.09;100.00;101680.00;6505155;22;19911;-83
2022/08/27 12:15:29;;;;;;;;;;;;;;;26.08;100.00;101663.84;6504702;22;19904;-83
2022/08/27 12:18:15;;;;;;;;;;;;;;;26.12;100.00;101671.38;6505808;22;20393;-83
2022/08/27 12:20:55;;;;;;;;;;;;;;;26.19;100.00;101674.88;6500841;22;19908;-83
2022/08/27 12:23:41;;;;;;;;;;;;;;;26.25;98.51;101675.84;6500445;22;20091;-83
2022/08/27 12:26:24;;;;;;;;;;;;;;;26.33;99.92;101669.22;6501504;22;19927;-83
2022/08/27 12:29:15;;;;;;;;;;;;;;;26.55;99.39;101664.16;6501518;22;20246;-83
2022/08/27 12:31:47;;;;;;;;;;;;;;;26.94;100.00;101673.75;6500045;22;20314;-83
2022/08/27 12:34:21;;;;;;;;;;;;;;;27.56;100.00;101667.19;6497327;22;19903;-83
2022/08/27 12:36:53;;;;;;;;;;;;;;;28.03;92.24;101666.38;6500916;22;19943;-83
2022/08/27 12:39:30;;;;;;;;;;;;;;;28.96;92.25;101667.25;6500652;22;19923;-83
2022/08/27 12:42:10;;;;;;;;;;;;;;;29.54;80.97;101664.41;6500759;22;19908;-83
2022/08/27 12:44:41;;;;;;;;;;;;;;;29.85;71.42;101659.44;6499437;22;20250;-83
2022/08/27 12:47:15;;;;;;;;;;;;;;;30.17;68.89;101665.97;6502886;22;19904;-83
2022/08/27 12:49:47;;;;;;;;;;;;;;;31.29;68.76;101660.13;6502599;22;19918;-83
2022/08/27 12:52:37;;;;;;;;;;;;;;;31.75;56.16;101656.91;6502273;22;19916;-83
2022/08/27 12:55:16;;;;;;;;;;;;;;;31.54;60.27;101661.44;6503462;22;19957;-83
2022/08/27 12:58:08;;;;;;;;;;;;;;;31.43;63.38;101651.41;6505023;22;19912;-83
2022/08/27 13:01:00;;;;;;;;;;;;;;;31.12;61.79;101659.41;6503343;22;19915;-83
2022/08/27 13:03:34;;;;;;;;;;;;;;;31.33;55.42;101651.31;6505520;22;19908;-82
2022/08/27 13:06:16;;;;;;;;;;;;;;;31.16;47.73;101654.22;6505066;22;19908;-82
2022/08/27 13:08:52;;;;;;;;;;;;;;;30.72;59.48;101660.63;6504300;22;20307;-82
2022/08/27 13:11:25;;;;;;;;;;;;;;;30.65;55.36;101654.47;6503369;22;19908;-83